Time;durP1;ratioP1;P1;durP2;ratioP2;P2;SDS_P1;SDS_P2;PMS_P1;PMS_P2;Temp;Humidity;BMP_temperature;BMP_pressure;BME280_temperature;BME280_humidity;BME280_pressure;Samples;Min_cycle;Max_cycle;Signal;HPM_P1;HPM_P2
2022/09/19 00:01:13;;;;;;;;;5.67;4.33;;;;;14.62;70.90;101377.41;4877795;29;46933;-83
2022/09/19 00:03:44;;;;;;;;;5.00;5.00;;;;;14.56;70.65;101370.25;4879706;29;45519;-83
2022/09/19 00:06:13;;;;;;;;;5.00;5.00;;;;;14.56;70.75;101372.91;4878271;29;44851;-84
2022/09/19 00:08:42;;;;;;;;;4.00;2.00;;;;;14.47;72.98;101363.88;4878552;29;45440;-83
2022/09/19 00:11:08;;;;;;;;;3.33;3.33;;;;;14.46;71.17;101363.00;4878239;29;47012;-83
2022/09/19 00:13:35;;;;;;;;;3.33;3.33;;;;;14.44;71.71;101387.94;4874068;29;46552;-84
2022/09/19 00:16:01;;;;;;;;;4.00;4.00;;;;;14.45;71.66;101387.06;4872090;29;45420;-84
2022/09/19 00:18:27;;;;;;;;;5.00;5.00;;;;;14.45;71.84;101385.28;4872126;29;45470;-84
2022/09/19 00:20:53;;;;;;;;;3.33;3.33;;;;;14.40;72.21;101381.63;4873699;29;45304;-84
2022/09/19 00:26:09;;;;;;;;;6.00;4.33;;;;;14.40;72.43;101389.66;4872421;29;45411;-84
2022/09/19 00:28:38;;;;;;;;;6.67;5.00;;;;;14.35;73.84;101378.06;4873018;29;44844;-84
2022/09/19 00:31:04;;;;;;;;;5.67;5.67;;;;;14.30;72.46;101370.00;4871574;29;48197;-82
2022/09/19 00:33:32;;;;;;;;;4.67;4.00;;;;;14.34;72.93;101377.16;4872672;29;45465;-83
2022/09/19 00:35:59;;;;;;;;;5.33;5.33;;;;;14.37;73.78;101378.97;4870970;29;45448;-84
2022/09/19 00:38:27;;;;;;;;;3.33;3.33;;;;;14.39;73.09;101388.78;4870799;29;45534;-84
2022/09/19 00:40:53;;;;;;;;;5.00;4.00;;;;;14.31;72.96;101376.22;4870656;29;45452;-83
2022/09/19 00:43:21;;;;;;;;;5.00;4.00;;;;;14.34;74.16;101386.94;4871829;29;45413;-83
2022/09/19 00:45:47;;;;;;;;;4.00;4.00;;;;;14.28;73.67;101387.81;4869160;29;45324;-84
2022/09/19 00:48:20;;;;;;;;;3.00;3.00;;;;;14.21;74.40;101383.28;4870220;29;45351;-83
2022/09/19 00:50:52;;;;;;;;;6.33;4.33;;;;;14.23;74.29;101383.28;4869671;29;47435;-81
2022/09/19 00:53:22;;;;;;;;;7.00;5.00;;;;;14.19;74.42;101385.03;4870513;29;45593;-83
2022/09/19 00:55:53;;;;;;;;;4.33;3.67;;;;;14.17;74.61;101387.69;4870650;29;44798;-83
2022/09/19 00:58:34;;;;;;;;;3.00;3.00;;;;;14.16;75.07;101393.03;4872059;29;45740;-83
2022/09/19 01:01:01;;;;;;;;;4.00;4.00;;;;;14.10;75.60;101383.19;4873683;29;45423;-84
2022/09/19 01:03:28;;;;;;;;;6.00;4.33;;;;;14.03;75.64;101392.00;4872615;29;45357;-83
2022/09/19 01:06:10;;;;;;;;;5.00;5.00;;;;;14.06;75.58;101392.06;4872958;29;45395;-83
2022/09/19 01:08:51;;;;;;;;;4.33;3.67;;;;;14.05;75.28;101400.06;4872891;29;44847;-83
2022/09/19 01:11:44;;;;;;;;;4.00;3.67;;;;;14.03;76.23;101392.00;4871211;29;45200;-84
2022/09/19 01:14:25;;;;;;;;;5.00;5.00;;;;;13.98;76.89;101391.06;4852984;29;45743;-83
2022/09/19 01:16:58;;;;;;;;;4.00;4.00;;;;;13.95;76.43;101393.69;4853814;29;45426;-83
2022/09/19 01:19:38;;;;;;;;;3.33;3.33;;;;;13.97;77.07;101397.28;4854091;29;44993;-83
2022/09/19 01:22:12;;;;;;;;;3.00;3.00;;;;;13.96;76.59;101403.53;4838667;29;45301;-84
2022/09/19 01:24:53;;;;;;;;;5.33;5.00;;;;;13.92;77.72;101396.38;4854504;29;45291;-84
2022/09/19 01:27:35;;;;;;;;;4.00;4.00;;;;;13.90;77.55;101400.81;4853294;29;44856;-83
2022/09/19 01:30:05;;;;;;;;;5.00;5.00;;;;;13.85;77.64;101399.84;4857355;29;45404;-83
2022/09/19 01:32:42;;;;;;;;;4.00;4.00;;;;;13.85;77.85;101398.06;4856696;29;46682;-83
2022/09/19 01:35:11;;;;;;;;;6.00;6.00;;;;;13.83;77.44;101388.22;4856443;29;44890;-83
2022/09/19 01:37:53;;;;;;;;;3.33;3.33;;;;;13.88;78.23;101397.22;4856232;29;45353;-83
2022/09/19 01:40:21;;;;;;;;;5.00;5.00;;;;;13.82;78.31;101386.44;4855206;29;44903;-83
2022/09/19 01:42:57;;;;;;;;;4.00;4.00;;;;;13.79;78.37;101389.97;4840159;29;46983;-83
2022/09/19 01:45:44;;;;;;;;;5.00;5.00;;;;;13.84;78.50;101400.72;4860907;29;44790;-83
2022/09/19 01:48:57;;;;;;;;;3.00;3.00;;;;;13.82;78.75;101403.38;4859111;29;45397;-83
2022/09/19 01:51:34;;;;;;;;;3.67;3.67;;;;;13.83;78.85;101404.28;4858378;29;44818;-83
2022/09/19 01:54:13;;;;;;;;;4.33;4.33;;;;;13.83;78.98;101405.16;4858104;29;46865;-84
2022/09/19 01:57:25;;;;;;;;;5.67;4.33;;;;;13.82;79.15;101406.06;4858970;29;45370;-83
2022/09/19 02:00:05;;;;;;;;;4.00;4.00;;;;;13.79;79.49;101401.56;4855952;29;45521;-83
2022/09/19 02:02:49;;;;;;;;;5.00;4.00;;;;;13.78;79.81;101405.13;4857459;29;45388;-84
2022/09/19 02:05:43;;;;;;;;;4.50;4.00;;;;;13.77;80.04;101403.31;4855316;29;45299;-83
2022/09/19 02:11:31;;;;;;;;;5.67;4.00;;;;;13.63;80.66;101396.91;4858233;29;45444;-83
2022/09/19 02:14:17;;;;;;;;;5.00;5.00;;;;;13.67;80.14;101406.75;4877739;29;44849;-83
2022/09/19 02:17:02;;;;;;;;;2.67;2.67;;;;;13.59;80.95;101404.00;4875821;29;45522;-83
2022/09/19 02:19:33;;;;;;;;;5.33;3.67;;;;;13.59;80.72;101405.75;4875662;29;45510;-83
2022/09/19 02:22:16;;;;;;;;;4.00;4.00;;;;;13.60;80.81;101396.88;4876304;29;45388;-83
2022/09/19 02:24:45;;;;;;;;;4.00;4.00;;;;;13.56;81.20;101395.94;4874964;29;45416;-84
2022/09/19 02:27:20;;;;;;;;;4.33;4.33;;;;;13.56;81.51;101413.75;4875402;29;47663;-83
2022/09/19 02:29:53;;;;;;;;;5.67;5.00;;;;;13.55;81.86;101410.19;4875915;29;45483;-84
2022/09/19 02:32:20;;;;;;;;;5.33;4.00;;;;;13.50;81.95;101401.22;4875562;29;44729;-84
2022/09/19 02:34:48;;;;;;;;;4.00;4.00;;;;;13.53;82.14;101406.59;4873670;29;45486;-84
2022/09/19 02:37:32;;;;;;;;;4.00;3.00;;;;;13.47;82.65;101398.50;4875000;29;47126;-84
2022/09/19 02:40:04;;;;;;;;;4.33;4.33;;;;;13.49;82.21;101411.88;4873633;29;45491;-84
2022/09/19 02:43:02;;;;;;;;;5.00;5.00;;;;;13.48;83.00;101402.06;4873559;29;45801;-84
2022/09/19 02:45:37;;;;;;;;;3.33;3.33;;;;;13.43;84.25;101393.97;4870843;29;45343;-83
2022/09/19 02:48:22;;;;;;;;;5.00;5.00;;;;;13.42;84.07;101402.88;4874382;29;45445;-83
2022/09/19 02:50:59;;;;;;;;;3.33;3.33;;;;;13.36;83.96;101390.34;4873893;29;45912;-83
2022/09/19 02:53:30;;;;;;;;;5.00;5.00;;;;;13.38;84.32;101401.06;4872337;29;44786;-84
2022/09/19 02:56:00;;;;;;;;;5.67;5.67;;;;;13.40;84.49;101407.31;4872959;29;45691;-83
2022/09/19 02:59:22;;;;;;;;;5.33;5.33;;;;;13.40;84.42;101410.88;4874881;29;47373;-83
2022/09/19 03:02:00;;;;;;;;;5.00;5.00;;;;;13.34;84.41;101400.09;4875688;29;44792;-83
2022/09/19 03:04:32;;;;;;;;;6.00;5.67;;;;;13.36;84.96;101408.16;4860652;29;45454;-83
2022/09/19 03:07:12;;;;;;;;;3.00;3.00;;;;;13.37;84.77;101421.53;4876283;29;45367;-83
2022/09/19 03:09:41;;;;;;;;;6.00;6.00;;;;;13.33;85.30;101410.78;4877347;29;45043;-83
2022/09/19 03:12:18;;;;;;;;;5.33;5.00;;;;;13.35;85.54;101417.94;4875423;29;44883;-83
2022/09/19 03:14:48;;;;;;;;;4.67;4.67;;;;;13.32;85.73;101417.91;4872817;29;45141;-83
2022/09/19 03:17:16;;;;;;;;;5.00;5.00;;;;;13.31;85.92;101416.13;4872285;29;45717;-83
2022/09/19 03:19:46;;;;;;;;;3.67;3.67;;;;;13.26;85.71;101417.78;4872989;29;45450;-83
2022/09/19 03:22:14;;;;;;;;;5.00;5.00;;;;;13.23;86.41;101417.75;4872052;29;45776;-84
2022/09/19 03:24:46;;;;;;;;;5.00;5.00;;;;;13.20;86.77;101407.00;4871228;29;45431;-83
2022/09/19 03:27:11;;;;;;;;;5.67;5.00;;;;;13.25;87.21;101420.41;4871306;29;45490;-84
2022/09/19 03:29:37;;;;;;;;;5.67;5.00;;;;;13.21;87.37;101419.50;4872470;29;45346;-83
2022/09/19 03:32:03;;;;;;;;;6.00;6.00;;;;;13.21;87.27;101419.50;4872733;29;45404;-84
2022/09/19 03:34:30;;;;;;;;;4.00;4.00;;;;;13.16;88.52;101416.75;4873782;29;45463;-83
2022/09/19 03:36:59;;;;;;;;;4.00;4.00;;;;;13.12;88.02;101424.69;4872467;29;45447;-83
2022/09/19 03:39:25;;;;;;;;;6.33;5.33;;;;;13.14;88.50;101423.84;4872709;29;46177;-84
2022/09/19 03:41:51;;;;;;;;;4.33;4.33;;;;;13.12;88.52;101425.59;4871295;29;45596;-84
2022/09/19 03:44:19;;;;;;;;;6.67;5.00;;;;;13.07;89.80;101415.72;4872414;29;44807;-84
2022/09/19 03:46:46;;;;;;;;;4.00;4.00;;;;;13.10;89.64;101429.13;4871411;29;45366;-84
2022/09/19 03:49:12;;;;;;;;;6.00;6.00;;;;;13.09;89.63;101435.31;4871464;29;47817;-84
2022/09/19 03:51:37;;;;;;;;;6.00;6.00;;;;;13.02;90.69;101434.34;4870855;29;45362;-83
2022/09/19 03:54:03;;;;;;;;;6.33;6.33;;;;;13.04;90.44;101437.03;4871286;29;45691;-84
2022/09/19 03:56:29;;;;;;;;;7.33;5.67;;;;;13.00;90.61;101439.66;4870929;29;45596;-84
2022/09/19 03:58:54;;;;;;;;;5.67;5.67;;;;;12.96;90.93;101440.47;4873211;29;45521;-84
2022/09/19 04:01:21;;;;;;;;;6.33;5.00;;;;;12.99;91.20;101445.00;4870658;29;45458;-83
2022/09/19 04:03:46;;;;;;;;;4.00;4.00;;;;;12.93;91.75;101435.09;4871444;29;45343;-84
2022/09/19 04:06:12;;;;;;;;;5.67;5.33;;;;;12.98;92.43;101438.72;4870493;29;45495;-84
2022/09/19 04:08:38;;;;;;;;;6.33;6.00;;;;;12.95;92.28;101433.38;4870248;29;47527;-83
2022/09/19 04:11:03;;;;;;;;;7.00;7.00;;;;;12.93;92.50;101428.88;4871026;29;45459;-84
2022/09/19 04:13:29;;;;;;;;;5.67;5.67;;;;;12.91;92.83;101444.88;4869769;29;45520;-83
2022/09/19 04:15:55;;;;;;;;;5.67;5.67;;;;;12.87;92.79;101440.34;4870339;29;44830;-83
2022/09/19 04:18:20;;;;;;;;;4.00;3.67;;;;;12.87;93.18;101445.69;4854275;29;46614;-83
2022/09/19 04:20:47;;;;;;;;;4.67;4.67;;;;;12.90;93.25;101453.72;4855061;29;45574;-83
2022/09/19 04:23:16;;;;;;;;;6.00;6.00;;;;;12.90;93.26;101451.06;4870319;29;45416;-84
2022/09/19 04:25:42;;;;;;;;;7.00;5.00;;;;;12.85;93.99;101458.13;4871106;29;45370;-83
2022/09/19 04:31:37;;;;;;;;;6.67;5.00;;;;;12.85;94.07;101449.22;4871850;29;45476;-83
2022/09/19 04:34:03;;;;;;;;;5.33;5.33;;;;;12.84;94.99;101460.75;4868992;29;44863;-83
2022/09/19 04:36:31;;;;;;;;;7.33;6.00;;;;;12.74;95.48;101449.91;4870782;29;45475;-84
2022/09/19 04:38:58;;;;;;;;;4.00;4.00;;;;;12.65;96.32;101439.09;4870567;29;47987;-83
2022/09/19 04:41:24;;;;;;;;;8.33;6.67;;;;;12.73;96.03;101461.47;4870541;29;45311;-84
2022/09/19 04:43:50;;;;;;;;;5.00;5.00;;;;;12.67;96.15;101452.47;4871773;29;45411;-83
2022/09/19 04:46:20;;;;;;;;;9.00;5.33;;;;;12.67;96.26;101444.47;4870419;29;45475;-83
2022/09/19 04:48:46;;;;;;;;;5.00;5.00;;;;;12.59;96.40;101447.00;4869574;29;46796;-84
2022/09/19 04:51:12;;;;;;;;;7.00;5.00;;;;;12.64;96.75;101457.75;4870830;29;45371;-84
2022/09/19 04:54:21;;;;;;;;;4.33;4.33;;;;;12.68;96.86;101464.94;4872900;29;45233;-83
2022/09/19 04:56:46;;;;;;;;;6.00;5.33;;;;;12.65;97.42;101459.56;4871230;29;45495;-83
2022/09/19 04:59:12;;;;;;;;;5.00;5.00;;;;;12.63;99.08;101456.84;4873151;29;45494;-83
2022/09/19 05:01:38;;;;;;;;;6.67;5.67;;;;;12.60;98.95;101456.78;4856902;29;45489;-82
2022/09/19 05:04:04;;;;;;;;;7.33;5.00;;;;;12.57;99.10;101457.66;4873843;29;45420;-83
2022/09/19 05:06:31;;;;;;;;;7.00;6.00;;;;;12.56;99.00;101461.19;4872602;29;45810;-82
2022/09/19 05:09:00;;;;;;;;;6.67;5.00;;;;;12.58;99.31;101462.13;4856899;29;47324;-83
2022/09/19 05:11:25;;;;;;;;;6.33;5.33;;;;;12.54;99.60;101452.28;4871286;29;44786;-84
2022/09/19 05:13:53;;;;;;;;;4.33;4.33;;;;;12.48;99.71;101446.84;4870973;29;45384;-83
2022/09/19 05:16:20;;;;;;;;;5.67;5.67;;;;;12.56;100.00;101457.59;4870908;29;45494;-84
2022/09/19 05:19:17;;;;;;;;;5.33;5.33;;;;;12.55;100.00;101464.72;4870591;29;47337;-84
2022/09/19 05:21:44;;;;;;;;;4.00;4.00;;;;;12.53;100.00;101466.47;4870858;29;45786;-84
2022/09/19 05:24:10;;;;;;;;;5.00;5.00;;;;;12.50;100.00;101474.44;4871287;29;45452;-84
2022/09/19 05:26:37;;;;;;;;;5.00;5.00;;;;;12.50;100.00;101479.78;4871371;29;45437;-84
2022/09/19 05:29:04;;;;;;;;;6.00;6.00;;;;;12.49;100.00;101477.97;4871050;29;47518;-84
2022/09/19 05:31:30;;;;;;;;;6.33;6.33;;;;;12.49;100.00;101477.06;4873720;29;45339;-83
2022/09/19 05:33:56;;;;;;;;;5.33;5.33;;;;;12.48;100.00;101472.59;4873650;29;45392;-83
2022/09/19 05:36:21;;;;;;;;;6.67;6.67;;;;;12.45;100.00;101468.09;4872405;29;45299;-84
2022/09/19 05:38:48;;;;;;;;;7.00;6.67;;;;;12.47;100.00;101471.69;4872142;29;46266;-84
2022/09/19 05:41:14;;;;;;;;;6.67;6.67;;;;;12.49;100.00;101474.41;4872249;29;45424;-84
2022/09/19 05:43:39;;;;;;;;;7.33;6.00;;;;;12.46;100.00;101469.00;4855398;29;45611;-83
2022/09/19 05:46:05;;;;;;;;;6.67;6.67;;;;;12.42;100.00;101465.38;4869222;29;45566;-83
2022/09/19 05:48:30;;;;;;;;;7.33;7.33;;;;;12.50;100.00;101484.19;4869772;29;46967;-83
2022/09/19 05:50:55;;;;;;;;;6.67;6.67;;;;;12.46;100.00;101469.00;4870764;29;45431;-84
2022/09/19 05:56:07;;;;;;;;;9.33;7.33;;;;;12.55;100.00;101479.84;4871535;29;45413;-83
2022/09/19 05:58:35;;;;;;;;;7.67;7.67;;;;;12.59;100.00;101482.59;4853690;29;46864;-83
2022/09/19 06:01:10;;;;;;;;;7.67;7.67;;;;;12.68;100.00;101486.28;4853067;29;45401;-82
2022/09/19 06:03:38;;;;;;;;;7.00;6.00;;;;;12.66;100.00;101477.34;4870869;29;45305;-84
2022/09/19 06:06:18;;;;;;;;;10.00;10.00;;;;;12.80;100.00;101494.50;4868892;29;45437;-83
2022/09/19 06:08:44;;;;;;;;;5.00;5.00;;;;;12.77;100.00;101481.13;4869701;29;45112;-82
2022/09/19 06:11:10;;;;;;;;;7.67;7.67;;;;;12.81;100.00;101478.53;4868420;29;45488;-83
2022/09/19 06:16:26;;;;;;;;;9.00;9.00;;;;;12.89;100.00;101494.66;4877504;29;45403;-83
2022/09/19 06:18:52;;;;;;;;;6.33;6.00;;;;;12.97;100.00;101505.47;4876284;29;46797;-82
2022/09/19 06:21:17;;;;;;;;;8.33;8.33;;;;;13.08;99.90;101508.31;4861276;29;45510;-83
2022/09/19 06:23:43;;;;;;;;;6.33;5.33;;;;;13.12;99.99;101512.84;4877967;29;45496;-84
2022/09/19 06:26:09;;;;;;;;;7.33;7.33;;;;;13.15;99.71;101510.22;4875921;29;44923;-83
2022/09/19 06:28:35;;;;;;;;;6.00;6.00;;;;;13.20;99.31;101514.75;4871932;29;46857;-83
2022/09/19 06:31:04;;;;;;;;;10.33;8.33;;;;;13.19;98.89;101512.06;4872942;29;45487;-84
2022/09/19 06:33:33;;;;;;;;;6.67;6.67;;;;;13.26;98.79;101521.97;4873502;29;45797;-84
2022/09/19 06:35:59;;;;;;;;;5.33;5.33;;;;;13.29;98.67;101531.78;4857150;29;45541;-84
2022/09/19 06:39:21;;;;;;;;;7.00;7.00;;;;;13.25;98.14;101529.94;4871310;29;48127;-84
2022/09/19 06:41:47;;;;;;;;;9.33;6.00;;;;;13.20;98.98;101529.88;4856746;29;45818;-84
2022/09/19 06:44:13;;;;;;;;;4.00;4.00;;;;;13.18;99.46;101539.63;4872456;29;45576;-84
2022/09/19 06:46:39;;;;;;;;;4.00;3.67;;;;;13.12;99.33;101520.84;4873678;29;45400;-84
2022/09/19 06:49:07;;;;;;;;;7.33;6.33;;;;;13.19;98.35;101546.78;4858817;29;47018;-84
2022/09/19 06:51:33;;;;;;;;;5.00;5.00;;;;;13.14;100.00;101535.13;4875875;29;44935;-84
2022/09/19 06:53:59;;;;;;;;;6.00;6.00;;;;;13.18;98.98;101540.53;4872246;29;45437;-83
2022/09/19 06:56:25;;;;;;;;;7.00;5.00;;;;;13.29;99.20;101550.47;4873724;29;45468;-84
2022/09/19 06:58:51;;;;;;;;;6.67;6.00;;;;;13.27;99.26;101549.56;4857388;29;45995;-84
2022/09/19 07:01:17;;;;;;;;;6.33;6.33;;;;;13.31;98.62;101548.75;4872587;29;45866;-84
2022/09/19 07:03:43;;;;;;;;;4.00;3.00;;;;;13.35;99.46;101562.22;4858652;29;44911;-84
2022/09/19 07:06:09;;;;;;;;;5.33;5.33;;;;;13.32;98.85;101558.59;4874903;29;45525;-84
2022/09/19 07:08:35;;;;;;;;;5.33;5.33;;;;;13.32;99.09;101554.13;4859754;29;47026;-84
2022/09/19 07:11:00;;;;;;;;;5.67;5.67;;;;;13.47;98.86;101568.63;4876461;29;45418;-82
2022/09/19 07:13:26;;;;;;;;;4.33;4.33;;;;;13.47;98.72;101549.91;4860020;29;45308;-84
2022/09/19 07:16:03;;;;;;;;;5.67;5.67;;;;;13.70;98.03;101569.88;4863680;29;44956;-83
2022/09/19 07:22:03;;;;;;;;;7.00;7.00;;;;;13.66;96.83;101525.25;4877579;29;45402;-84
2022/09/19 07:24:29;;;;;;;;;4.33;3.33;;;;;13.67;96.70;101519.03;4863400;29;45479;-83
2022/09/19 07:27:14;;;;;;;;;6.33;5.00;;;;;13.93;96.35;101553.25;4861888;29;44776;-83
2022/09/19 07:29:40;;;;;;;;;7.00;7.00;;;;;13.91;95.26;101558.56;4857389;29;45360;-84
2022/09/19 07:35:30;;;;;;;;;4.33;4.33;;;;;14.10;95.88;101561.47;4876016;29;45481;-85
2022/09/19 07:37:56;;;;;;;;;7.00;6.67;;;;;14.20;94.74;101560.75;4859396;29;44881;-85
2022/09/19 07:40:23;;;;;;;;;4.67;4.67;;;;;14.20;94.17;101556.28;4873689;29;47983;-85
2022/09/19 07:42:51;;;;;;;;;5.67;5.67;;;;;14.29;94.53;101570.63;4874907;29;45447;-84
2022/09/19 07:45:19;;;;;;;;;6.33;6.00;;;;;14.45;94.44;101567.25;4876589;29;45451;-85
2022/09/19 07:47:58;;;;;;;;;5.33;4.33;;;;;14.35;92.80;101549.31;4878116;29;45518;-85
2022/09/19 07:50:52;;;;;;;;;6.00;6.00;;;;;14.54;93.21;101567.38;4876455;29;46774;-84
2022/09/19 07:53:40;;;;;;;;;5.00;5.00;;;;;14.68;92.36;101570.22;4878239;29;45476;-85
2022/09/19 07:56:11;;;;;;;;;4.67;4.67;;;;;14.84;91.84;101589.13;4868992;29;44886;-84
2022/09/19 07:58:37;;;;;;;;;3.00;2.67;;;;;14.83;91.14;101596.28;4873212;29;45542;-84
2022/09/19 08:01:04;;;;;;;;;7.00;6.00;;;;;14.77;91.07;101585.50;4859069;29;45445;-85
2022/09/19 08:03:49;;;;;;;;;6.00;5.67;;;;;14.63;91.22;101555.00;4868268;29;45495;-84
2022/09/19 08:16:27;;;;;;;;;6.00;6.00;;;;;15.14;90.57;101604.59;4876593;29;45368;-85
2022/09/19 08:18:55;;;;;;;;;4.00;4.00;;;;;15.24;90.03;101595.75;4875818;29;45500;-84
2022/09/19 08:21:30;;;;;;;;;7.33;4.33;;;;;15.30;88.47;101598.47;4876024;29;44843;-84
2022/09/19 08:24:00;;;;;;;;;4.00;4.00;;;;;15.25;88.48;101585.91;4872678;29;45433;-85
2022/09/19 08:26:47;;;;;;;;;4.67;4.67;;;;;15.40;88.71;101594.97;4857919;29;44793;-85
2022/09/19 08:29:33;;;;;;;;;5.00;5.00;;;;;15.65;87.67;101615.72;4874804;29;45488;-85
2022/09/19 08:32:00;;;;;;;;;4.00;4.00;;;;;15.51;86.44;101572.72;4843544;29;45529;-85
2022/09/19 08:34:28;;;;;;;;;3.67;3.67;;;;;15.55;85.49;101572.78;4863546;29;45539;-85
2022/09/19 08:37:00;;;;;;;;;4.67;4.33;;;;;15.52;84.45;101566.50;4871506;29;45332;-85
2022/09/19 08:39:27;;;;;;;;;2.00;2.00;;;;;15.92;81.38;101617.75;4867146;29;45225;-86
2022/09/19 08:42:01;;;;;;;;;2.00;2.00;;;;;15.99;81.60;101614.19;4873213;29;45849;-81
2022/09/19 08:44:26;;;;;;;;;2.67;2.67;;;;;16.03;81.30;101616.00;4851821;29;46768;-85
2022/09/19 08:47:13;;;;;;;;;2.00;2.00;;;;;16.10;80.49;101606.22;4870135;29;45374;-85
2022/09/19 08:50:18;;;;;;;;;4.67;4.00;;;;;16.20;79.92;101613.44;4857540;29;45385;-85
2022/09/19 08:53:12;;;;;;;;;2.00;1.00;;;;;16.24;78.38;101617.00;4864680;29;45547;-85
2022/09/19 08:55:44;;;;;;;;;3.00;2.00;;;;;16.30;78.26;101609.88;4850151;29;45495;-85
2022/09/19 08:58:44;;;;;;;;;;;;;;;;;;;;;
2022/09/19 09:01:28;;;;;;;;;1.67;1.67;;;;;16.45;76.02;101603.66;4873470;29;68004;-84
2022/09/19 09:04:07;;;;;;;;;2.00;1.67;;;;;16.57;74.88;101609.09;4868706;29;45465;-85
2022/09/19 09:07:10;;;;;;;;;2.00;2.00;;;;;16.73;73.91;101607.34;4855921;29;48091;-85
2022/09/19 09:10:15;;;;;;;;;1.67;1.67;;;;;16.86;72.87;101613.66;4873338;29;44917;-86
2022/09/19 09:13:05;;;;;;;;;1.00;1.00;;;;;16.89;71.56;101616.38;4820647;29;45612;-86
2022/09/19 09:16:24;;;;;;;;;0.00;0.00;;;;;16.69;67.73;101592.13;4836297;29;45427;-86
2022/09/19 09:19:39;;;;;;;;;;;;;;;;;;;;;
2022/09/19 09:23:00;;;;;;;;;1.00;1.00;;;;;16.84;66.89;101615.44;4831489;29;72222;-85
2022/09/19 09:25:35;;;;;;;;;4.00;1.00;;;;;16.60;66.45;101574.19;4815135;29;45453;-85
2022/09/19 09:28:26;;;;;;;;;0.00;0.00;;;;;16.75;66.20;101612.72;4802764;29;45044;-86
2022/09/19 09:34:46;;;;;;;;;0.00;0.00;;;;;16.83;66.64;101615.47;4832696;29;45595;-83
2022/09/19 09:37:36;;;;;;;;;2.00;0.00;;;;;16.70;65.85;101601.06;4830859;29;45474;-85
2022/09/19 10:06:38;;;;;;;;;1.00;0.00;;;;;17.06;59.22;101616.38;4851552;29;46496;-87
2022/09/19 10:12:55;;;;;;;;;0.67;0.67;;;;;17.09;60.42;101612.84;4855393;29;44873;-87
2022/09/19 10:18:45;;;;;;;;;1.00;0.33;;;;;17.08;59.44;101566.22;4837133;29;45326;-87
2022/09/19 10:21:20;;;;;;;;;1.00;1.00;;;;;17.35;59.29;101591.31;4875214;29;45444;-87
2022/09/19 10:23:46;;;;;;;;;1.00;1.00;;;;;17.58;59.23;101615.50;4868010;29;45347;-87
2022/09/19 10:30:06;;;;;;;;;0.00;0.00;;;;;17.57;57.49;101601.19;4845254;29;45449;-86
2022/09/19 10:32:37;;;;;;;;;0.33;0.33;;;;;17.33;57.26;101582.34;4855814;29;45596;-85
2022/09/19 10:36:16;;;;;;;;;;;;;;;;;;;;;
2022/09/19 10:38:53;;;;;;;;;0.00;0.00;;;;;17.61;55.33;101610.13;4823995;29;65019;-86
2022/09/19 10:41:34;;;;;;;;;0.33;0.33;;;;;17.66;56.71;101602.06;4840499;29;45454;-86
2022/09/19 11:02:20;;;;;;;;;;;;;;;;;;;;;
2022/09/19 11:05:42;;;;;;;;;0.00;0.00;;;;;18.45;52.73;101576.69;4808790;29;65245;-88
2022/09/19 11:08:28;;;;;;;;;2.00;2.00;;;;;18.48;52.34;101552.47;4752871;29;45781;-87
2022/09/19 11:10:56;;;;;;;;;0.00;0.00;;;;;18.45;49.55;101546.19;4757333;29;44727;-87
2022/09/19 11:13:35;;;;;;;;;0.00;0.00;;;;;18.57;50.82;101567.66;4758069;29;45791;-87
2022/09/19 11:16:39;;;;;;;;;1.00;1.00;;;;;18.70;49.06;101584.63;4749026;29;46306;-87
2022/09/19 11:19:39;;;;;;;;;0.33;0.33;;;;;18.67;50.39;101579.28;4757429;29;45651;-89
2022/09/19 11:22:58;;;;;;;;;0.33;0.33;;;;;18.58;50.30;101581.13;4761844;29;45417;-85
2022/09/19 11:25:36;;;;;;;;;2.00;1.00;;;;;18.55;51.00;101581.13;4748887;29;44886;-86
2022/09/19 11:28:33;;;;;;;;;1.00;1.00;;;;;18.54;51.62;101573.97;4761768;29;44941;-84
2022/09/19 11:31:35;;;;;;;;;0.00;0.00;;;;;18.64;51.33;101590.94;4746275;29;45188;-85
2022/09/19 11:34:21;;;;;;;;;2.00;2.00;;;;;18.56;51.54;101582.03;4755418;29;44884;-85
2022/09/19 11:37:25;;;;;;;;;1.00;1.00;;;;;18.51;52.42;101590.13;4825476;29;45486;-86
2022/09/19 11:43:21;;;;;;;;;0.00;0.00;;;;;18.65;51.47;101584.69;4817836;29;45919;-84
2022/09/19 11:45:54;;;;;;;;;1.00;1.00;;;;;18.76;51.66;101584.59;4861081;29;45355;-84
2022/09/19 11:49:13;;;;;;;;;0.00;0.00;;;;;18.79;50.38;101580.13;4872541;29;45493;-84
2022/09/19 11:52:08;;;;;;;;;1.00;1.00;;;;;18.74;49.50;101584.63;4870344;29;45487;-84
2022/09/19 11:55:15;;;;;;;;;1.00;0.00;;;;;18.67;49.35;101579.28;4871547;29;45921;-82
2022/09/19 11:58:17;;;;;;;;;0.00;0.00;;;;;18.64;49.85;101573.91;4833665;29;45395;-85
2022/09/19 12:01:17;;;;;;;;;2.00;2.00;;;;;18.34;50.27;101539.06;4850999;29;45672;-84
2022/09/19 12:04:24;;;;;;;;;1.00;1.00;;;;;18.52;48.99;101561.38;4839213;29;45443;-87
2022/09/19 12:07:43;;;;;;;;;0.00;0.00;;;;;18.54;48.33;101570.34;4831260;29;46708;-85
2022/09/19 12:14:09;;;;;;;;;1.00;1.00;;;;;18.69;46.68;101561.31;4788381;29;45415;-86
2022/09/19 12:17:04;;;;;;;;;0.67;0.67;;;;;18.68;46.27;101527.16;4847037;29;45441;-86
2022/09/19 12:19:59;;;;;;;;;2.00;0.67;;;;;19.15;44.59;101555.63;4823826;29;45893;-86
2022/09/19 12:22:33;;;;;;;;;1.00;1.00;;;;;19.18;45.47;101512.44;4827625;29;45336;-85
2022/09/19 12:25:20;;;;;;;;;0.00;0.00;;;;;19.53;45.12;101548.94;4835898;29;44864;-86
2022/09/19 12:28:02;;;;;;;;;1.50;1.00;;;;;19.55;45.72;101555.22;4863293;29;45505;-86
2022/09/19 12:33:55;;;;;;;;;0.00;0.00;;;;;19.29;45.79;101504.22;4839464;29;45051;-86
2022/09/19 12:36:46;;;;;;;;;0.00;0.00;;;;;19.30;45.12;101498.81;4817903;29;44957;-86
2022/09/19 12:39:14;;;;;;;;;1.00;1.00;;;;;19.53;43.82;101546.25;4838916;29;44995;-85
2022/09/19 12:41:43;;;;;;;;;0.00;0.00;;;;;19.48;45.32;101531.94;4823031;29;47664;-86
2022/09/19 12:44:35;;;;;;;;;0.67;0.67;;;;;19.37;42.98;101545.53;4819837;29;45335;-86
2022/09/19 12:47:50;;;;;;;;;0.67;0.67;;;;;19.23;43.51;101542.03;4840277;29;45871;-86
2022/09/19 12:50:36;;;;;;;;;0.67;0.67;;;;;19.04;45.43;101512.53;4799718;29;45542;-85
2022/09/19 12:53:21;;;;;;;;;1.33;1.00;;;;;19.30;44.91;101552.75;4840785;29;45497;-86
2022/09/19 12:56:15;;;;;;;;;0.00;0.00;;;;;19.53;44.33;101539.06;4838235;29;45425;-88
2022/09/19 13:02:48;;;;;;;;;0.00;0.00;;;;;19.74;44.24;101516.38;4790949;29;45643;-86
2022/09/19 13:09:25;;;;;;;;;1.00;1.00;;;;;20.18;42.58;101527.56;4729379;30;44867;-85
2022/09/19 13:12:10;;;;;;;;;1.00;1.00;;;;;20.27;42.49;101515.72;4697449;30;45360;-86
2022/09/19 13:23:53;;;;;;;;;0.00;0.00;;;;;20.31;40.96;101468.84;4843576;29;44759;-87
2022/09/19 13:26:41;;;;;;;;;0.00;0.00;;;;;20.45;42.14;101477.63;4823126;29;45649;-87
2022/09/19 13:29:30;;;;;;;;;0.00;0.00;;;;;20.72;42.18;101521.41;4843395;29;45512;-87
2022/09/19 13:32:04;;;;;;;;;0.00;0.00;;;;;20.44;41.95;101475.88;4837530;29;45427;-86
2022/09/19 13:34:41;;;;;;;;;1.00;0.33;;;;;20.60;42.05;101513.47;4855920;29;45406;-86
2022/09/19 13:37:25;;;;;;;;;0.67;0.67;;;;;20.51;42.33;101507.25;4847244;29;44927;-86
2022/09/19 13:40:21;;;;;;;;;0.33;0.33;;;;;20.21;42.34;101478.88;4843716;29;45384;-86
2022/09/19 13:42:53;;;;;;;;;2.00;0.00;;;;;20.32;42.30;101505.72;4854605;29;45591;-85
2022/09/19 13:45:41;;;;;;;;;0.00;0.00;;;;;20.37;42.31;101509.28;4830543;29;44836;-85
2022/09/19 13:48:28;;;;;;;;;0.00;0.00;;;;;20.50;42.70;101502.78;4844225;29;45740;-88
2022/09/19 13:51:29;;;;;;;;;0.00;0.00;;;;;20.53;41.31;101500.03;4834675;29;48235;-88
2022/09/19 13:54:23;;;;;;;;;1.00;1.00;;;;;20.43;41.85;101502.91;4838360;29;45441;-88
2022/09/19 13:57:01;;;;;;;;;0.00;0.00;;;;;20.31;42.30;101507.56;4844394;29;45395;-86
2022/09/19 13:59:48;;;;;;;;;0.00;0.00;;;;;20.38;42.98;101502.97;4856847;29;44919;-86
2022/09/19 14:02:16;;;;;;;;;0.00;0.00;;;;;20.57;40.80;101501.75;4863428;29;46099;-85
2022/09/19 14:05:05;;;;;;;;;1.67;1.00;;;;;20.66;41.93;101494.47;4881477;29;45314;-87
2022/09/19 14:07:57;;;;;;;;;1.00;1.00;;;;;20.74;39.96;101500.63;4861864;29;44852;-88
2022/09/19 14:10:35;;;;;;;;;0.33;0.33;;;;;20.62;39.58;101492.72;4863644;29;44796;-86
2022/09/19 14:13:26;;;;;;;;;1.00;0.00;;;;;20.56;40.93;101493.66;4857357;29;47451;-86